createdAt,value
2018-02-21T00:03:04.393Z,62.00
2018-02-21T00:07:55.319Z,62.10
2018-02-21T00:12:46.220Z,62.20
2018-02-21T00:17:37.968Z,62.10
2018-02-21T00:22:28.940Z,62.00
2018-02-21T00:27:19.836Z,62.00
2018-02-21T00:32:10.740Z,62.10
2018-02-21T00:37:01.637Z,62.00
2018-02-21T00:41:52.540Z,62.00
2018-02-21T00:46:44.180Z,62.10
2018-02-21T00:51:35.821Z,62.00
2018-02-21T00:56:27.460Z,61.90
2018-02-21T01:01:18.367Z,61.90
2018-02-21T01:06:10.069Z,61.90
2018-02-21T01:11:08.092Z,61.90
2018-02-21T01:15:59.729Z,61.70
2018-02-21T01:20:51.428Z,61.70
2018-02-21T01:25:42.333Z,61.70
2018-02-21T01:30:33.232Z,61.80
2018-02-21T01:35:24.189Z,61.70
2018-02-21T01:40:15.136Z,61.70
2018-02-21T01:45:06.789Z,61.70
2018-02-21T01:49:58.500Z,61.60
2018-02-21T01:54:49.416Z,61.50
2018-02-21T01:59:40.349Z,61.60
2018-02-21T02:04:32.010Z,61.70
2018-02-21T02:09:22.943Z,61.50
2018-02-21T02:14:13.878Z,61.70
2018-02-21T02:19:04.788Z,61.70
2018-02-21T02:23:55.727Z,61.60
2018-02-21T02:28:46.683Z,61.50
2018-02-21T02:33:38.343Z,61.60
2018-02-21T02:38:39.555Z,61.50
2018-02-21T02:43:30.498Z,61.70
2018-02-21T02:48:22.160Z,61.60
2018-02-21T02:53:13.160Z,61.60
2018-02-21T02:58:04.848Z,61.60
2018-02-21T03:02:55.761Z,61.60
2018-02-21T03:07:46.699Z,61.60
2018-02-21T03:12:37.636Z,61.50
2018-02-21T03:17:28.652Z,61.50
2018-02-21T03:22:19.579Z,61.70
2018-02-21T03:27:10.600Z,61.50
2018-02-21T03:32:01.527Z,61.50
2018-02-21T03:36:52.510Z,61.50
2018-02-21T03:41:43.476Z,61.40
2018-02-21T03:46:35.133Z,61.60
2018-02-21T03:51:26.057Z,61.60
2018-02-21T03:56:17.067Z,61.50
2018-02-21T04:01:08.002Z,61.40
2018-02-21T04:05:58.925Z,61.30
2018-02-21T04:10:49.924Z,61.40
2018-02-21T04:15:41.775Z,61.40
2018-02-21T04:20:32.692Z,61.40
2018-02-21T04:25:24.396Z,61.50
2018-02-21T04:30:15.383Z,61.50
2018-02-21T04:35:06.352Z,61.40
2018-02-21T04:39:58.013Z,61.40
2018-02-21T04:44:49.028Z,61.30
2018-02-21T04:49:39.962Z,61.40
2018-02-21T04:54:30.895Z,61.40
2018-02-21T04:59:26.755Z,61.40
2018-02-21T05:04:17.779Z,61.30
2018-02-21T05:09:08.824Z,62.00
2018-02-21T05:14:00.567Z,61.50
2018-02-21T05:18:52.236Z,61.60
2018-02-21T05:23:43.205Z,61.50
2018-02-21T05:28:34.131Z,61.50
2018-02-21T05:33:25.140Z,61.40
2018-02-21T05:38:16.067Z,61.50
2018-02-21T05:43:07.029Z,61.50
2018-02-21T05:47:57.959Z,61.50
2018-02-21T05:52:48.886Z,61.50
2018-02-21T05:57:39.836Z,61.60
2018-02-21T06:02:30.884Z,61.70
2018-02-21T06:07:22.590Z,61.70
2018-02-21T06:12:13.509Z,61.70
2018-02-21T06:17:04.426Z,61.80
2018-02-21T06:21:55.371Z,61.80
2018-02-21T06:26:47.109Z,61.90
2018-02-21T06:31:38.778Z,61.90
2018-02-21T06:36:29.693Z,61.80
2018-02-21T06:41:20.652Z,61.90
2018-02-21T06:46:11.569Z,61.80
2018-02-21T06:51:02.480Z,61.90
2018-02-21T06:55:53.401Z,61.90
2018-02-21T07:00:45.080Z,62.20
2018-02-21T07:05:36.756Z,62.30
2018-02-21T07:10:27.708Z,62.30
2018-02-21T07:15:18.687Z,62.50
2018-02-21T07:20:10.313Z,62.90
2018-02-21T07:25:01.310Z,62.80
2018-02-21T07:29:53.036Z,63.10
2018-02-21T07:34:44.697Z,63.50
2018-02-21T07:39:35.632Z,64.10
2018-02-21T07:44:26.579Z,63.50
2018-02-21T07:49:17.546Z,63.60
2018-02-21T07:54:09.227Z,63.40
2018-02-21T07:59:00.158Z,63.40
2018-02-21T08:03:51.940Z,63.30
2018-02-21T08:08:42.882Z,63.20
2018-02-21T08:13:33.872Z,63.20
2018-02-21T08:18:25.559Z,63.40
2018-02-21T08:23:17.216Z,64.00
2018-02-21T08:28:08.154Z,63.40
2018-02-21T08:32:59.187Z,63.70
2018-02-21T08:37:50.924Z,64.20
2018-02-21T08:42:42.680Z,64.30
2018-02-21T08:47:33.742Z,64.30
2018-02-21T08:52:24.670Z,64.40
2018-02-21T08:57:15.624Z,64.30
2018-02-21T09:02:07.308Z,65.00
2018-02-21T09:06:58.272Z,65.00
2018-02-21T09:11:49.237Z,65.30
2018-02-21T09:16:40.212Z,65.90
2018-02-21T09:21:31.134Z,65.40
2018-02-21T09:26:22.801Z,66.20
2018-02-21T09:31:13.739Z,65.60
2018-02-21T09:36:04.684Z,65.60
2018-02-21T09:40:55.611Z,65.50
2018-02-21T09:45:46.544Z,65.50
2018-02-21T09:50:38.217Z,65.50
2018-02-21T09:55:29.135Z,65.40
2018-02-21T10:00:20.055Z,65.50
2018-02-21T10:05:10.990Z,65.60
2018-02-21T10:10:01.921Z,65.50
2018-02-21T10:14:52.865Z,65.60
2018-02-21T10:19:44.599Z,65.60
2018-02-21T10:24:36.279Z,65.60
2018-02-21T10:29:27.215Z,65.60
2018-02-21T10:34:18.152Z,65.60
2018-02-21T10:39:09.099Z,65.50
2018-02-21T10:44:00.775Z,65.50
2018-02-21T10:48:51.750Z,65.40
2018-02-21T10:53:42.734Z,65.30
2018-02-21T10:58:33.629Z,65.20
2018-02-21T11:03:24.572Z,65.20
2018-02-21T11:08:15.516Z,65.00
2018-02-21T11:13:06.457Z,65.00
2018-02-21T11:17:58.148Z,64.90
2018-02-21T11:22:49.061Z,64.90
2018-02-21T11:27:39.977Z,65.10
2018-02-21T11:32:30.901Z,64.80
2018-02-21T11:37:21.818Z,64.90
2018-02-21T11:42:13.487Z,64.20
2018-02-21T11:47:04.400Z,64.10
2018-02-21T11:51:55.352Z,63.90
2018-02-21T11:56:46.265Z,63.60
2018-02-21T12:01:37.948Z,63.80
2018-02-21T12:06:28.868Z,63.70
2018-02-21T12:11:19.808Z,63.30
2018-02-21T12:16:10.735Z,63.00
2018-02-21T12:21:01.664Z,62.80
2018-02-21T12:25:53.336Z,62.60
2018-02-21T12:30:44.273Z,62.50
2018-02-21T12:35:35.257Z,62.60
2018-02-21T12:40:32.446Z,62.90
2018-02-21T12:45:23.362Z,63.00
2018-02-21T12:50:14.294Z,63.10
2018-02-21T12:55:05.261Z,63.30
2018-02-21T12:59:56.989Z,62.70
2018-02-21T13:04:47.907Z,62.70
2018-02-21T13:09:38.821Z,62.40
2018-02-21T13:14:29.737Z,62.00
2018-02-21T13:19:20.679Z,62.30
2018-02-21T13:24:12.341Z,62.50
2018-02-21T13:29:03.276Z,62.50
2018-02-21T13:33:54.235Z,62.40
2018-02-21T13:38:45.148Z,62.30
2018-02-21T13:43:36.187Z,62.20
2018-02-21T13:48:27.867Z,62.30
2018-02-21T13:53:18.805Z,62.20
2018-02-21T13:58:09.803Z,62.20
2018-02-21T14:03:00.749Z,61.90
2018-02-21T14:07:51.696Z,61.40
2018-02-21T14:12:43.365Z,61.00
2018-02-21T14:17:34.300Z,61.00
2018-02-21T14:22:25.217Z,61.10
2018-02-21T14:27:16.175Z,61.20
2018-02-21T14:32:07.340Z,61.20
2018-02-21T14:36:58.344Z,61.20
2018-02-21T14:41:50.024Z,61.40
2018-02-21T14:46:40.948Z,61.40
2018-02-21T14:51:31.881Z,61.20
2018-02-21T14:56:22.816Z,61.40
2018-02-21T15:01:13.763Z,61.30
2018-02-21T15:06:04.689Z,61.00
2018-02-21T15:10:55.616Z,61.00
2018-02-21T15:15:46.545Z,61.00
2018-02-21T15:20:37.483Z,61.00
2018-02-21T15:25:28.413Z,61.10
2018-02-21T15:30:19.355Z,61.20
2018-02-21T15:35:11.033Z,61.40
2018-02-21T15:40:02.005Z,61.50
2018-02-21T15:44:52.939Z,60.60
2018-02-21T15:49:44.670Z,61.10
2018-02-21T15:54:36.363Z,61.20
2018-02-21T15:59:27.326Z,61.20
2018-02-21T16:04:19.013Z,61.50
2018-02-21T16:09:09.947Z,61.40
2018-02-21T16:14:00.882Z,61.00
2018-02-21T16:18:51.804Z,60.70
2018-02-21T16:23:42.717Z,60.60
2018-02-21T16:28:33.653Z,60.80
2018-02-21T16:33:25.405Z,60.50
2018-02-21T16:38:17.089Z,60.30
2018-02-21T16:43:08.036Z,60.30
2018-02-21T16:47:58.986Z,60.10
2018-02-21T16:52:49.943Z,60.40
2018-02-21T16:57:40.881Z,60.40
2018-02-21T17:02:31.820Z,60.30
2018-02-21T17:07:22.760Z,60.40
2018-02-21T17:12:13.699Z,60.50
2018-02-21T17:17:04.626Z,60.40
2018-02-21T17:21:55.576Z,60.90
2018-02-21T17:26:46.535Z,60.80
2018-02-21T17:31:38.185Z,61.20
2018-02-21T17:36:29.131Z,61.20
2018-02-21T17:41:26.147Z,61.20
2018-02-21T17:46:17.822Z,61.00
2018-02-21T17:51:08.827Z,61.00
2018-02-21T17:55:59.762Z,61.00
2018-02-21T18:00:50.696Z,61.00
2018-02-21T18:05:41.658Z,61.00
2018-02-21T18:10:32.599Z,60.90
2018-02-21T18:15:23.542Z,61.00
2018-02-21T18:20:14.491Z,61.10
2018-02-21T18:25:05.485Z,61.00
2018-02-21T18:29:56.457Z,61.10
2018-02-21T18:34:48.187Z,61.10
2018-02-21T18:39:39.856Z,61.20
2018-02-21T18:44:30.858Z,61.10
2018-02-21T18:49:22.542Z,61.10
2018-02-21T18:54:13.487Z,61.10
2018-02-21T18:59:04.420Z,61.20
2018-02-21T19:03:56.084Z,61.40
2018-02-21T19:08:47.032Z,61.30
2018-02-21T19:13:37.949Z,61.40
2018-02-21T19:18:28.876Z,61.50
2018-02-21T19:23:19.802Z,61.60
2018-02-21T19:28:10.791Z,61.50
2018-02-21T19:33:01.768Z,61.70
2018-02-21T19:37:53.451Z,61.70
2018-02-21T19:42:44.372Z,61.60
2018-02-21T19:47:35.333Z,61.70
2018-02-21T19:52:27.005Z,61.80
2018-02-21T19:57:17.945Z,61.70
2018-02-21T20:02:08.968Z,61.90
2018-02-21T20:06:59.892Z,61.90
2018-02-21T20:11:50.823Z,61.90
2018-02-21T20:16:41.764Z,61.90
2018-02-21T20:21:32.684Z,61.90
2018-02-21T20:26:23.611Z,62.00
2018-02-21T20:31:15.289Z,62.10
2018-02-21T20:36:06.437Z,62.10
2018-02-21T20:40:57.441Z,62.10
2018-02-21T20:45:48.397Z,62.10
2018-02-21T20:50:39.454Z,62.10
2018-02-21T20:55:30.412Z,62.20
2018-02-21T21:00:21.332Z,62.30
2018-02-21T21:05:12.248Z,62.30
2018-02-21T21:10:03.209Z,62.30
2018-02-21T21:14:54.864Z,62.60
2018-02-21T21:19:45.789Z,62.50
2018-02-21T21:24:36.700Z,62.60
2018-02-21T21:29:27.681Z,62.60
2018-02-21T21:34:18.601Z,62.60
2018-02-21T21:39:09.648Z,62.60
2018-02-21T21:44:01.357Z,62.50
2018-02-21T21:48:53.022Z,62.40
2018-02-21T21:53:44.703Z,62.40
2018-02-21T21:58:35.667Z,62.40
2018-02-21T22:03:27.464Z,62.40
2018-02-21T22:08:18.399Z,62.40
2018-02-21T22:13:09.383Z,62.40
2018-02-21T22:18:00.315Z,62.40
2018-02-21T22:22:51.306Z,62.40
2018-02-21T22:27:42.307Z,62.40
2018-02-21T22:32:34.052Z,62.40
2018-02-21T22:37:25.811Z,62.40
2018-02-21T22:42:16.808Z,62.40
2018-02-21T22:47:08.469Z,62.50
2018-02-21T22:56:59.516Z,62.30
2018-02-21T23:01:50.474Z,62.30
2018-02-21T23:06:41.420Z,62.30
2018-02-21T23:11:32.344Z,62.40
2018-02-21T23:16:23.291Z,62.30
2018-02-21T23:21:14.220Z,62.30
2018-02-21T23:26:05.201Z,62.10
2018-02-21T23:30:56.134Z,62.10
2018-02-21T23:35:47.815Z,62.10
2018-02-21T23:40:38.751Z,62.00
2018-02-21T23:45:29.673Z,62.00
2018-02-21T23:50:20.612Z,61.90
2018-02-21T23:55:11.538Z,62.00
